Orbital elements of WESTPAC
| Launched | 9 July 1998 |
| Flight ended | – |
| Launch site | Tyuratam Missile and Space Center, Kazakhstan (Also known as Baikonur Cosmodrome) |
| Owner | Australia |
| NORAD ID | 25398 |
| Date fetched |
Epoch osculation |
Inc. [°] |
Ecc. | RA asc node [hr] |
Arg Peri. [°] |
Mean anom [°] |
Mean motion [rev/day] |
Abs. mag |
| Date fetched |
Epoch osculation |
Inc. [°] |
Ecc. | RA asc node [hr] |
Arg Peri. [°] |
Mean anom [°] |
Mean motion [rev/day] |
Abs. mag |
| 2026 May 05 17:57 | 2026 May 05 10:45:29 | 99.0122 | 0.00013 | 7.3659 | 21.1389 | 338.9842 | 14.23051 | 9.243 |
| 2026 May 04 17:57 | 2026 May 04 11:08:01 | 99.0122 | 0.00013 | 7.2988 | 22.8884 | 338.9842 | 14.23051 | 9.243 |
| 2026 May 03 17:57 | 2026 May 03 09:49:18 | 99.0122 | 0.00014 | 7.2268 | 24.2019 | 338.9842 | 14.23051 | 9.243 |
| 2026 May 02 17:57 | 2026 May 02 10:11:49 | 99.0121 | 0.00014 | 7.1597 | 26.1405 | 338.9842 | 14.23051 | 9.243 |
| 2026 May 01 17:56 | 2026 May 01 12:15:36 | 99.0120 | 0.00015 | 7.0973 | 28.0807 | 338.9842 | 14.23051 | 9.243 |
| 2026 Apr 30 17:56 | 2026 Apr 29 23:08:09 | 99.0118 | 0.00016 | 6.9918 | 30.9621 | 338.9842 | 14.23051 | 9.243 |
| 2026 Apr 29 17:57 | 2026 Apr 29 13:00:40 | 99.0118 | 0.00016 | 6.9630 | 31.8542 | 338.9842 | 14.23051 | 9.243 |
| 2026 Apr 28 17:56 | 2026 Apr 28 10:00:42 | 99.0118 | 0.00016 | 6.8862 | 33.9676 | 338.9842 | 14.23051 | 9.243 |
| 2026 Apr 27 17:58 | 2026 Apr 27 10:23:14 | 99.0117 | 0.00017 | 6.8191 | 35.8756 | 338.9842 | 14.23051 | 9.243 |
| 2026 Apr 26 17:58 | 2026 Apr 25 21:15:47 | 99.0116 | 0.00017 | 6.7136 | 38.7299 | 338.9842 | 14.23051 | 9.243 |
| 2026 Apr 25 17:58 | 2026 Apr 25 12:49:33 | 99.0116 | 0.00017 | 6.6896 | 39.4536 | 338.9842 | 14.23051 | 9.243 |
| 2026 Apr 24 17:59 | 2026 Apr 23 11:53:22 | 99.0116 | 0.00018 | 6.5505 | 43.2900 | 338.9842 | 14.23051 | 9.243 |
| 2026 Apr 23 17:57 | 2026 Apr 22 22:23:23 | 99.0115 | 0.00018 | 6.5121 | 44.1788 | 338.9842 | 14.23051 | 9.243 |
| 2026 Apr 22 17:57 | 2026 Apr 21 22:45:55 | 99.0116 | 0.00019 | 6.4449 | 45.8900 | 338.9842 | 14.23051 | 9.243 |
| 2026 Apr 21 17:57 | 2026 Apr 21 09:15:56 | 99.0115 | 0.00019 | 6.4066 | 46.2822 | 338.9842 | 14.23051 | 9.243 |
| 2026 Apr 20 17:57 | 2026 Apr 20 09:38:27 | 99.0115 | 0.00019 | 6.3394 | 47.9249 | 338.9842 | 14.23051 | 9.243 |
| 2026 Apr 19 17:58 | 2026 Apr 19 11:42:14 | 99.0115 | 0.00020 | 6.2770 | 49.4194 | 338.9842 | 14.23051 | 9.243 |
| 2026 Apr 18 17:56 | 2026 Apr 18 05:19:47 | 99.0114 | 0.00020 | 6.1907 | 51.6729 | 338.9842 | 14.23051 | 9.243 |
| 2026 Apr 16 17:57 | 2026 Apr 15 21:38:36 | 99.0112 | 0.00021 | 6.0324 | 55.5879 | 338.9842 | 14.23051 | 9.243 |
| 2026 Apr 14 17:57 | 2026 Apr 14 10:12:24 | 99.0110 | 0.00021 | 5.9317 | 58.3377 | 338.9842 | 14.23051 | 9.243 |
| 2026 Apr 13 17:57 | 2026 Apr 13 05:31:11 | 99.0107 | 0.00022 | 5.8501 | 60.5059 | 338.9842 | 14.23051 | 9.243 |
| 2026 Apr 12 17:57 | 2026 Apr 12 09:16:13 | 99.0107 | 0.00022 | 5.7926 | 61.6965 | 338.9842 | 14.23051 | 9.243 |
| 2026 Apr 11 17:57 | 2026 Apr 11 09:38:44 | 99.0106 | 0.00022 | 5.7254 | 63.1774 | 338.9842 | 14.23051 | 9.243 |
| 2026 Apr 10 17:58 | 2026 Apr 10 04:57:32 | 99.0105 | 0.00022 | 5.6439 | 65.0414 | 338.9842 | 14.23051 | 9.243 |
| 2026 Apr 09 18:01 | 2026 Apr 08 22:35:04 | 99.0104 | 0.00022 | 5.5576 | 67.0260 | 338.9842 | 14.23051 | 9.243 |
| 2026 Apr 08 17:57 | 2026 Apr 08 05:42:35 | 99.0105 | 0.00023 | 5.5096 | 68.1305 | 338.9842 | 14.23051 | 9.243 |